createdAt,value
2023-03-16T00:02:19.458Z,4.43
2023-03-16T00:04:49.112Z,3.40
2023-03-16T00:07:16.903Z,3.23
2023-03-16T00:09:45.133Z,3.37
2023-03-16T00:12:16.327Z,3.37
2023-03-16T00:14:45.033Z,3.40
2023-03-16T00:17:20.186Z,3.20
2023-03-16T00:19:55.452Z,3.17
2023-03-16T00:22:24.781Z,3.83
2023-03-16T00:24:53.573Z,3.27
2023-03-16T00:27:24.223Z,3.23
2023-03-16T00:29:56.452Z,3.07
2023-03-16T00:32:27.569Z,2.90
2023-03-16T00:34:57.461Z,3.47
2023-03-16T00:37:26.761Z,3.03
2023-03-16T00:39:56.489Z,3.10
2023-03-16T00:42:28.150Z,3.30
2023-03-16T00:44:57.533Z,3.03
2023-03-16T00:47:26.941Z,3.60
2023-03-16T00:49:56.277Z,3.10
2023-03-16T00:52:24.454Z,3.10
2023-03-16T00:54:53.980Z,2.90
2023-03-16T00:57:24.707Z,4.17
2023-03-16T00:59:52.641Z,3.40
2023-03-16T01:02:23.856Z,3.10
2023-03-16T01:04:52.893Z,2.80
2023-03-16T01:07:22.908Z,3.20
2023-03-16T01:09:51.332Z,3.73
2023-03-16T01:12:20.977Z,2.93
2023-03-16T01:14:50.061Z,3.27
2023-03-16T01:17:18.858Z,2.63
2023-03-16T01:19:48.787Z,3.37
2023-03-16T01:22:16.993Z,3.30
2023-03-16T01:24:46.884Z,3.20
2023-03-16T01:27:16.673Z,2.80
2023-03-16T01:29:44.737Z,3.33
2023-03-16T01:32:12.848Z,2.90
2023-03-16T01:34:42.137Z,3.00
2023-03-16T01:37:09.850Z,2.90
2023-03-16T01:39:37.625Z,2.80
2023-03-16T01:42:07.567Z,2.60
2023-03-16T01:44:52.763Z,2.83
2023-03-16T01:47:20.592Z,2.90
2023-03-16T01:49:48.572Z,2.70
2023-03-16T01:52:20.544Z,3.00
2023-03-16T01:54:51.747Z,3.13
2023-03-16T01:57:23.667Z,2.93
2023-03-16T01:59:56.135Z,2.93
2023-03-16T02:02:27.738Z,2.90
2023-03-16T02:04:59.401Z,2.80
2023-03-16T02:07:29.570Z,2.90
2023-03-16T02:09:59.639Z,3.20
2023-03-16T02:12:30.419Z,2.90
2023-03-16T02:14:58.202Z,2.70
2023-03-16T02:17:28.985Z,2.87
2023-03-16T02:20:11.087Z,2.53
2023-03-16T02:22:42.650Z,3.00
2023-03-16T02:25:12.489Z,2.80
2023-03-16T02:27:47.697Z,2.73
2023-03-16T02:30:19.159Z,2.97
2023-03-16T02:32:49.366Z,3.00
2023-03-16T02:35:17.060Z,2.63
2023-03-16T02:37:44.929Z,2.77
2023-03-16T02:40:23.287Z,2.93
2023-03-16T02:42:57.016Z,2.87
2023-03-16T02:45:30.126Z,3.73
2023-03-16T02:47:59.815Z,2.20
2023-03-16T02:50:28.052Z,2.67
2023-03-16T02:52:56.477Z,3.00
2023-03-16T02:55:24.139Z,2.97
2023-03-16T02:57:53.531Z,2.80
2023-03-16T03:00:22.131Z,3.03
2023-03-16T03:02:52.918Z,2.67
2023-03-16T03:05:21.314Z,2.53
2023-03-16T03:07:50.498Z,2.73
2023-03-16T03:10:19.906Z,2.50
2023-03-16T03:12:49.514Z,2.50
2023-03-16T03:15:19.110Z,2.70
2023-03-16T03:17:46.988Z,2.83
2023-03-16T03:20:18.434Z,3.00
2023-03-16T03:22:49.227Z,2.40
2023-03-16T03:25:18.828Z,2.70
2023-03-16T03:27:49.014Z,2.60
2023-03-16T03:30:19.071Z,2.30
2023-03-16T03:32:47.156Z,2.50
2023-03-16T03:35:17.660Z,2.10
2023-03-16T03:37:45.589Z,2.60
2023-03-16T03:40:16.698Z,2.23
2023-03-16T03:42:45.156Z,2.50
2023-03-16T03:45:15.123Z,2.57
2023-03-16T03:47:44.393Z,2.33
2023-03-16T03:50:13.943Z,2.40
2023-03-16T03:52:43.450Z,2.57
2023-03-16T03:55:11.967Z,2.30
2023-03-16T03:57:39.872Z,2.23
2023-03-16T04:00:11.533Z,2.23
2023-03-16T04:02:40.187Z,2.07
2023-03-16T04:05:09.150Z,2.50
2023-03-16T04:07:36.837Z,2.67
2023-03-16T04:10:07.919Z,2.33
2023-03-16T04:12:35.618Z,2.43
2023-03-16T04:15:03.988Z,2.47
2023-03-16T04:17:31.728Z,2.20
2023-03-16T04:19:59.469Z,2.50
2023-03-16T04:22:27.256Z,2.37
2023-03-16T04:24:55.184Z,2.30
2023-03-16T04:27:24.576Z,2.57
2023-03-16T04:29:55.815Z,2.47
2023-03-16T04:32:26.506Z,2.17
2023-03-16T04:34:56.130Z,2.30
2023-03-16T04:37:24.109Z,2.33
2023-03-16T04:39:51.767Z,2.10
2023-03-16T04:42:20.093Z,2.30
2023-03-16T04:44:49.856Z,2.10
2023-03-16T04:47:18.363Z,2.20
2023-03-16T04:49:46.737Z,2.40
2023-03-16T04:52:14.539Z,2.53
2023-03-16T04:54:42.421Z,2.30
2023-03-16T04:57:11.243Z,2.50
2023-03-16T04:59:39.419Z,2.53
2023-03-16T05:02:09.736Z,2.60
2023-03-16T05:04:37.538Z,2.50
2023-03-16T05:07:05.193Z,2.60
2023-03-16T05:09:33.146Z,3.10
2023-03-16T05:12:02.148Z,2.53
2023-03-16T05:14:30.221Z,2.57
2023-03-16T05:16:58.350Z,2.90
2023-03-16T05:19:27.678Z,2.70
2023-03-16T05:21:55.797Z,2.50
2023-03-16T05:24:24.300Z,3.00
2023-03-16T05:26:52.263Z,2.80
2023-03-16T05:29:20.139Z,2.73
2023-03-16T05:31:48.748Z,2.80
2023-03-16T05:34:16.511Z,2.80
2023-03-16T05:36:45.857Z,2.90
2023-03-16T05:39:15.055Z,2.90
2023-03-16T05:41:43.906Z,3.10
2023-03-16T05:44:12.977Z,3.03
2023-03-16T05:46:40.706Z,3.00
2023-03-16T05:49:08.372Z,2.47
2023-03-16T05:51:36.519Z,2.83
2023-03-16T05:54:05.997Z,2.67
2023-03-16T05:56:33.989Z,3.10
2023-03-16T05:59:04.335Z,2.50
2023-03-16T06:01:34.296Z,2.90
2023-03-16T06:04:03.556Z,2.90
2023-03-16T06:06:31.238Z,2.70
2023-03-16T06:08:58.967Z,2.50
2023-03-16T06:11:28.342Z,2.80
2023-03-16T06:13:58.263Z,2.63
2023-03-16T06:16:26.164Z,2.90
2023-03-16T06:18:56.248Z,3.07
2023-03-16T06:21:26.392Z,2.87
2023-03-16T06:23:54.424Z,2.57
2023-03-16T06:26:22.623Z,3.10
2023-03-16T06:28:52.877Z,4.07
2023-03-16T06:31:21.354Z,2.87
2023-03-16T06:33:49.182Z,2.73
2023-03-16T06:36:16.877Z,3.57
2023-03-16T06:38:44.577Z,3.43
2023-03-16T06:41:12.425Z,3.30
2023-03-16T06:43:40.728Z,3.00
2023-03-16T06:46:11.314Z,3.27
2023-03-16T06:48:39.421Z,3.27
2023-03-16T06:51:08.109Z,3.40
2023-03-16T06:53:35.922Z,2.73
2023-03-16T06:56:04.659Z,3.20
2023-03-16T06:58:32.408Z,2.57
2023-03-16T07:01:03.790Z,2.87
2023-03-16T07:03:33.207Z,2.93
2023-03-16T07:06:01.858Z,2.80
2023-03-16T07:08:30.686Z,3.23
2023-03-16T07:11:00.631Z,2.70
2023-03-16T07:13:31.485Z,2.83
2023-03-16T07:15:59.553Z,3.00
2023-03-16T07:18:27.224Z,3.00
2023-03-16T07:20:56.543Z,3.77
2023-03-16T07:23:25.944Z,2.90
2023-03-16T07:25:53.939Z,3.17
2023-03-16T07:28:22.607Z,2.43
2023-03-16T07:31:03.030Z,3.00
2023-03-16T07:33:32.566Z,2.80
2023-03-16T07:36:04.244Z,3.00
2023-03-16T07:38:33.629Z,3.10
2023-03-16T07:41:02.194Z,3.20
2023-03-16T07:43:30.327Z,3.13
2023-03-16T07:45:58.548Z,2.80
2023-03-16T07:48:26.850Z,2.93
2023-03-16T07:50:55.564Z,2.50
2023-03-16T07:53:25.312Z,2.70
2023-03-16T07:55:53.029Z,2.50
2023-03-16T07:58:21.688Z,2.63
2023-03-16T08:00:49.526Z,2.80
2023-03-16T08:03:19.801Z,2.60
2023-03-16T08:05:47.790Z,2.50
2023-03-16T08:08:16.424Z,2.13
2023-03-16T08:10:48.689Z,2.60
2023-03-16T08:13:16.904Z,2.70
2023-03-16T08:15:47.376Z,2.43
2023-03-16T08:18:15.277Z,2.23
2023-03-16T08:20:44.629Z,2.10
2023-03-16T08:23:15.535Z,2.50
2023-03-16T08:25:46.013Z,2.13
2023-03-16T08:28:13.837Z,2.30
2023-03-16T08:30:48.150Z,2.10
2023-03-16T08:33:18.043Z,2.13
2023-03-16T08:35:46.311Z,2.07
2023-03-16T08:38:19.985Z,2.17
2023-03-16T08:40:49.548Z,2.30
2023-03-16T08:43:18.057Z,2.07
2023-03-16T08:45:46.254Z,1.80
2023-03-16T08:48:14.943Z,1.80
2023-03-16T08:50:44.125Z,1.87
2023-03-16T08:53:13.709Z,2.30
2023-03-16T08:55:42.596Z,2.07
2023-03-16T08:58:14.005Z,2.10
2023-03-16T09:00:44.842Z,1.77
2023-03-16T09:03:13.783Z,2.00
2023-03-16T09:05:42.520Z,1.90
2023-03-16T09:08:10.805Z,2.00
2023-03-16T09:10:40.372Z,2.00
2023-03-16T09:13:08.612Z,2.27
2023-03-16T09:15:38.936Z,1.53
2023-03-16T09:18:06.855Z,1.93
2023-03-16T09:20:34.670Z,1.70
2023-03-16T09:23:03.770Z,2.00
2023-03-16T09:25:32.690Z,1.60
2023-03-16T09:28:00.956Z,1.80
2023-03-16T09:30:29.756Z,1.90
2023-03-16T09:32:59.919Z,1.80
2023-03-16T09:35:28.386Z,1.80
2023-03-16T09:38:06.181Z,1.80
2023-03-16T09:40:36.055Z,1.77
2023-03-16T09:43:17.928Z,1.70
2023-03-16T09:45:50.496Z,1.70
2023-03-16T09:48:21.842Z,1.60
2023-03-16T09:50:52.130Z,1.80
2023-03-16T09:53:25.178Z,1.80
2023-03-16T09:55:57.251Z,1.80
2023-03-16T09:58:28.414Z,1.40
2023-03-16T10:01:05.273Z,1.50
2023-03-16T10:03:49.208Z,1.43
2023-03-16T10:06:17.220Z,1.80
2023-03-16T10:08:54.004Z,1.67
2023-03-16T10:11:31.612Z,1.83
2023-03-16T10:14:06.386Z,1.37
2023-03-16T10:16:39.708Z,1.40
2023-03-16T10:19:15.628Z,1.53
2023-03-16T10:21:45.031Z,1.73
2023-03-16T10:24:25.279Z,1.50
2023-03-16T10:27:00.247Z,1.80
2023-03-16T10:29:33.091Z,1.60
2023-03-16T10:32:07.427Z,1.60
2023-03-16T10:34:36.682Z,1.60
2023-03-16T10:37:06.009Z,1.53
2023-03-16T10:39:42.950Z,1.50
2023-03-16T10:42:17.842Z,1.57
2023-03-16T10:44:46.639Z,1.53
2023-03-16T10:47:22.316Z,1.43
2023-03-16T10:49:53.449Z,1.63
2023-03-16T10:52:27.516Z,1.67
2023-03-16T10:54:58.538Z,1.80
2023-03-16T10:57:28.248Z,1.50
2023-03-16T10:59:58.105Z,1.50
2023-03-16T11:02:32.490Z,1.40
2023-03-16T11:05:13.067Z,1.43
2023-03-16T11:07:41.196Z,1.27
2023-03-16T11:10:32.335Z,1.50
2023-03-16T11:13:11.707Z,1.40
2023-03-16T11:15:45.608Z,1.30
2023-03-16T11:18:27.404Z,1.20
2023-03-16T11:20:58.139Z,1.43
2023-03-16T11:23:33.064Z,1.60
2023-03-16T11:26:04.828Z,1.50
2023-03-16T11:28:38.764Z,1.40
2023-03-16T11:31:18.691Z,1.40
2023-03-16T11:33:47.278Z,1.63
2023-03-16T11:36:32.595Z,2.10
2023-03-16T11:39:09.737Z,1.83
2023-03-16T11:41:48.518Z,1.80
2023-03-16T11:44:27.647Z,1.90
2023-03-16T11:47:00.509Z,2.10
2023-03-16T11:49:50.695Z,1.80
2023-03-16T11:52:29.276Z,1.97
2023-03-16T11:55:09.354Z,2.10
2023-03-16T11:57:51.322Z,2.00
2023-03-16T12:00:40.878Z,2.10
2023-03-16T12:03:53.786Z,2.20
2023-03-16T12:06:31.977Z,1.90
2023-03-16T12:09:26.764Z,1.93
2023-03-16T12:11:59.612Z,1.80
2023-03-16T12:14:34.657Z,1.67
2023-03-16T12:17:10.937Z,1.50
2023-03-16T12:19:45.682Z,1.80
2023-03-16T12:22:20.007Z,1.80
2023-03-16T12:24:49.812Z,1.73
2023-03-16T12:27:22.581Z,1.73
2023-03-16T12:29:59.501Z,1.80
2023-03-16T12:32:40.438Z,1.70
2023-03-16T12:35:22.061Z,1.77
2023-03-16T12:38:02.645Z,1.60
2023-03-16T12:40:40.590Z,1.50
2023-03-16T12:43:22.648Z,1.60
2023-03-16T12:45:58.327Z,1.60
2023-03-16T12:48:30.014Z,1.70
2023-03-16T12:51:00.015Z,1.40
2023-03-16T12:53:43.913Z,1.80
2023-03-16T12:56:16.446Z,1.80
2023-03-16T12:58:47.001Z,1.60
2023-03-16T13:01:16.903Z,2.03
2023-03-16T13:03:48.160Z,1.63
2023-03-16T13:06:22.394Z,1.60
2023-03-16T13:08:56.848Z,1.73
2023-03-16T13:11:27.056Z,1.70
2023-03-16T13:14:11.066Z,1.70
2023-03-16T13:16:39.719Z,1.80
2023-03-16T13:19:29.087Z,1.90
2023-03-16T13:22:08.351Z,2.17
2023-03-16T13:24:40.064Z,1.93
2023-03-16T13:27:21.512Z,2.10
2023-03-16T13:30:00.512Z,1.77
2023-03-16T13:32:34.604Z,1.93
2023-03-16T13:35:05.808Z,1.80
2023-03-16T13:37:33.862Z,2.43
2023-03-16T13:40:04.830Z,1.80
2023-03-16T13:42:35.447Z,1.90
2023-03-16T13:45:15.441Z,1.80
2023-03-16T13:47:44.156Z,1.70
2023-03-16T13:50:14.551Z,1.67
2023-03-16T13:52:44.285Z,1.70
2023-03-16T13:55:18.533Z,1.60
2023-03-16T13:57:49.348Z,1.60
2023-03-16T14:00:20.308Z,1.80
2023-03-16T14:02:54.004Z,1.90
2023-03-16T14:05:24.614Z,1.60
2023-03-16T14:07:53.984Z,1.77
2023-03-16T14:10:23.018Z,1.33
2023-03-16T14:12:57.656Z,1.80
2023-03-16T14:15:28.292Z,1.77
2023-03-16T14:18:13.684Z,1.57
2023-03-16T14:20:42.534Z,1.63
2023-03-16T14:23:19.537Z,1.70
2023-03-16T14:25:48.880Z,1.77
2023-03-16T14:28:22.770Z,1.90
2023-03-16T14:30:53.077Z,1.70
2023-03-16T14:33:30.081Z,1.67
2023-03-16T14:35:59.418Z,1.63
2023-03-16T14:38:32.113Z,2.10
2023-03-16T14:41:05.061Z,1.80
2023-03-16T14:43:36.766Z,1.77
2023-03-16T14:46:05.596Z,1.67
2023-03-16T14:48:34.061Z,1.57
2023-03-16T14:51:03.580Z,1.50
2023-03-16T14:53:32.541Z,1.70
2023-03-16T14:56:00.933Z,1.67
2023-03-16T14:58:28.792Z,1.70
2023-03-16T15:00:58.363Z,1.90
2023-03-16T15:03:34.213Z,1.40
2023-03-16T15:06:03.138Z,1.50
2023-03-16T15:08:33.905Z,1.77
2023-03-16T15:11:05.787Z,1.80
2023-03-16T15:13:53.301Z,1.43
2023-03-16T15:16:23.627Z,1.70
2023-03-16T15:18:52.036Z,1.57
2023-03-16T15:21:26.252Z,1.53
2023-03-16T15:23:54.715Z,1.70
2023-03-16T15:26:26.346Z,1.77
2023-03-16T15:28:54.158Z,1.90
2023-03-16T15:31:23.669Z,1.90
2023-03-16T15:33:51.624Z,1.87
2023-03-16T15:36:21.259Z,1.80
2023-03-16T15:38:51.388Z,1.70
2023-03-16T15:41:19.458Z,1.90
2023-03-16T15:43:47.650Z,1.90
2023-03-16T15:46:16.531Z,2.20
2023-03-16T15:48:45.859Z,1.90
2023-03-16T15:51:20.869Z,1.70
2023-03-16T15:53:51.373Z,1.90
2023-03-16T15:56:22.889Z,1.90
2023-03-16T15:58:50.925Z,2.10
2023-03-16T16:01:23.498Z,2.10
2023-03-16T16:03:54.283Z,2.00
2023-03-16T16:06:22.522Z,1.80
2023-03-16T16:08:52.279Z,1.97
2023-03-16T16:11:24.931Z,1.93
2023-03-16T16:13:53.727Z,2.10
2023-03-16T16:16:21.924Z,2.10
2023-03-16T16:18:49.918Z,1.93
2023-03-16T16:21:23.074Z,2.00
2023-03-16T16:23:52.963Z,2.00
2023-03-16T16:26:34.156Z,2.77
2023-03-16T16:29:13.909Z,2.10
2023-03-16T16:31:41.765Z,2.07
2023-03-16T16:34:13.506Z,1.70
2023-03-16T16:36:42.978Z,1.97
2023-03-16T16:39:11.934Z,2.60
2023-03-16T16:41:41.185Z,3.60
2023-03-16T16:44:16.990Z,3.37
2023-03-16T16:46:45.240Z,2.07
2023-03-16T16:49:16.484Z,2.30
2023-03-16T16:51:45.868Z,3.23
2023-03-16T16:54:18.333Z,4.43
2023-03-16T16:56:47.289Z,4.30
2023-03-16T16:59:18.451Z,3.60
2023-03-16T17:01:47.666Z,3.23
2023-03-16T17:04:17.664Z,2.40
2023-03-16T17:06:48.096Z,2.40
2023-03-16T17:09:16.372Z,3.00
2023-03-16T17:11:46.530Z,2.00
2023-03-16T17:14:17.598Z,2.10
2023-03-16T17:16:47.173Z,1.90
2023-03-16T17:19:19.832Z,1.80
2023-03-16T17:21:49.921Z,2.17
2023-03-16T17:24:18.354Z,1.77
2023-03-16T17:26:49.527Z,1.67
2023-03-16T17:29:21.038Z,1.70
2023-03-16T17:31:49.662Z,1.70
2023-03-16T17:34:21.213Z,1.90
2023-03-16T17:36:52.643Z,1.90
2023-03-16T17:39:22.584Z,1.93
2023-03-16T17:41:53.832Z,1.77
2023-03-16T17:44:21.689Z,1.97
2023-03-16T17:46:49.829Z,1.63
2023-03-16T17:49:20.832Z,2.30
2023-03-16T17:51:50.057Z,1.87
2023-03-16T17:54:18.062Z,2.47
2023-03-16T17:56:48.029Z,2.23
2023-03-16T17:59:18.136Z,2.03
2023-03-16T18:01:48.145Z,2.00
2023-03-16T18:04:17.796Z,1.90
2023-03-16T18:06:47.095Z,2.20
2023-03-16T18:09:18.803Z,2.60
2023-03-16T18:11:49.294Z,2.20
2023-03-16T18:14:26.511Z,3.10
2023-03-16T18:16:55.727Z,2.77
2023-03-16T18:19:26.001Z,2.40
2023-03-16T18:21:54.495Z,1.83
2023-03-16T18:24:26.759Z,2.47
2023-03-16T18:26:55.817Z,2.30
2023-03-16T18:29:24.299Z,2.30
2023-03-16T18:31:58.414Z,2.30
2023-03-16T18:34:32.233Z,2.90
2023-03-16T18:37:06.799Z,2.13
2023-03-16T18:39:36.547Z,2.00
2023-03-16T18:42:05.078Z,2.60
2023-03-16T18:44:34.183Z,2.60
2023-03-16T18:47:04.290Z,2.50
2023-03-16T18:49:35.035Z,2.50
2023-03-16T18:52:03.129Z,2.63
2023-03-16T18:54:35.427Z,2.43
2023-03-16T18:57:06.480Z,2.60
2023-03-16T18:59:34.279Z,2.60
2023-03-16T19:02:02.448Z,2.67
2023-03-16T19:04:32.807Z,2.70
2023-03-16T19:07:00.825Z,2.87
2023-03-16T19:09:30.528Z,2.83
2023-03-16T19:11:58.832Z,4.80
2023-03-16T19:14:32.070Z,5.33
2023-03-16T19:17:00.345Z,3.57
2023-03-16T19:19:28.575Z,3.13
2023-03-16T19:21:59.590Z,2.77
2023-03-16T19:24:29.736Z,2.70
2023-03-16T19:26:57.894Z,3.00
2023-03-16T19:29:31.070Z,2.77
2023-03-16T19:32:00.227Z,3.00
2023-03-16T19:34:29.969Z,3.03
2023-03-16T19:36:57.934Z,3.10
2023-03-16T19:39:26.168Z,2.90
2023-03-16T19:41:57.425Z,2.53
2023-03-16T19:44:27.800Z,2.80
2023-03-16T19:46:59.232Z,2.87
2023-03-16T19:49:29.486Z,3.00
2023-03-16T19:51:57.645Z,2.67
2023-03-16T19:54:27.580Z,3.10
2023-03-16T19:56:57.285Z,3.13
2023-03-16T19:59:30.999Z,2.80
2023-03-16T20:02:00.282Z,3.13
2023-03-16T20:04:28.775Z,3.33
2023-03-16T20:06:56.855Z,3.20
2023-03-16T20:09:24.982Z,3.30
2023-03-16T20:11:53.554Z,3.20
2023-03-16T20:14:24.640Z,3.10
2023-03-16T20:16:53.243Z,2.97
2023-03-16T20:19:24.314Z,2.73
2023-03-16T20:21:52.823Z,3.50
2023-03-16T20:24:22.197Z,2.90
2023-03-16T20:26:52.126Z,3.50
2023-03-16T20:29:25.135Z,3.07
2023-03-16T20:31:53.214Z,3.20
2023-03-16T20:34:25.794Z,3.00
2023-03-16T20:36:54.049Z,3.17
2023-03-16T20:39:22.014Z,3.10
2023-03-16T20:41:50.391Z,3.00
2023-03-16T20:44:21.132Z,3.30
2023-03-16T20:46:49.333Z,3.30
2023-03-16T20:49:32.773Z,3.47
2023-03-16T20:52:01.178Z,2.83
2023-03-16T20:54:28.873Z,3.57
2023-03-16T20:56:56.517Z,3.13
2023-03-16T20:59:26.522Z,3.00
2023-03-16T21:01:56.167Z,3.30
2023-03-16T21:04:26.329Z,3.13
2023-03-16T21:06:57.012Z,3.70
2023-03-16T21:09:24.941Z,3.10
2023-03-16T21:11:53.588Z,3.30
2023-03-16T21:14:25.560Z,2.80
2023-03-16T21:16:54.826Z,3.13
2023-03-16T21:19:24.798Z,3.40
2023-03-16T21:21:53.351Z,3.03
2023-03-16T21:24:22.852Z,3.20
2023-03-16T21:26:50.788Z,3.10
2023-03-16T21:29:22.012Z,3.03
2023-03-16T21:31:49.986Z,3.00
2023-03-16T21:34:24.953Z,3.00
2023-03-16T21:36:53.216Z,3.20
2023-03-16T21:39:25.348Z,3.10
2023-03-16T21:41:54.646Z,2.93
2023-03-16T21:44:22.752Z,3.13
2023-03-16T21:46:51.104Z,3.27
2023-03-16T21:49:19.693Z,3.37
2023-03-16T21:51:47.815Z,3.37
2023-03-16T21:54:16.984Z,3.03
2023-03-16T21:56:47.765Z,3.00
2023-03-16T21:59:15.521Z,3.23
2023-03-16T22:01:58.711Z,3.10
2023-03-16T22:04:28.382Z,2.90
2023-03-16T22:06:56.476Z,2.90
2023-03-16T22:09:25.154Z,3.07
2023-03-16T22:11:54.318Z,2.90
2023-03-16T22:14:23.363Z,2.73
2023-03-16T22:16:51.690Z,3.10
2023-03-16T22:19:19.861Z,2.53
2023-03-16T22:21:48.535Z,2.77
2023-03-16T22:24:18.482Z,2.40
2023-03-16T22:26:47.699Z,3.20
2023-03-16T22:29:23.490Z,2.80
2023-03-16T22:31:55.393Z,2.47
2023-03-16T22:34:31.419Z,2.90
2023-03-16T22:37:01.276Z,2.70
2023-03-16T22:39:32.228Z,2.70
2023-03-16T22:42:00.300Z,2.70
2023-03-16T22:44:29.656Z,2.77
2023-03-16T22:46:57.566Z,2.93
2023-03-16T22:49:28.520Z,2.80
2023-03-16T22:51:58.755Z,3.10
2023-03-16T22:54:29.778Z,2.70
2023-03-16T22:56:57.878Z,2.80
2023-03-16T22:59:29.241Z,2.47
2023-03-16T23:01:57.922Z,3.07
2023-03-16T23:04:30.083Z,3.00
2023-03-16T23:06:58.008Z,2.87
2023-03-16T23:09:26.230Z,2.90
2023-03-16T23:11:56.589Z,2.80
2023-03-16T23:14:28.765Z,2.97
2023-03-16T23:16:57.937Z,2.80
2023-03-16T23:19:29.788Z,2.70
2023-03-16T23:22:01.953Z,3.27
2023-03-16T23:24:30.668Z,3.23
2023-03-16T23:26:59.399Z,2.80
2023-03-16T23:29:27.625Z,2.60
2023-03-16T23:31:55.788Z,2.83
2023-03-16T23:34:26.635Z,2.90
2023-03-16T23:36:54.345Z,2.97
2023-03-16T23:39:22.084Z,2.57
2023-03-16T23:41:51.491Z,2.80
2023-03-16T23:44:22.153Z,3.00
2023-03-16T23:46:50.151Z,3.30
2023-03-16T23:49:21.257Z,2.87
2023-03-16T23:51:51.437Z,2.67
2023-03-16T23:54:21.269Z,2.90
2023-03-16T23:56:49.877Z,3.00
2023-03-16T23:59:19.059Z,2.90
